Time;durP1;ratioP1;P1;durP2;ratioP2;P2;SDS_P1;SDS_P2;PMS_P1;PMS_P2;Temp;Humidity;BMP_temperature;BMP_pressure;BME280_temperature;BME280_humidity;BME280_pressure;Samples;Min_cycle;Max_cycle;Signal;HPM_P1;HPM_P2
2021/11/14 00:00:36;;;;;;;34.23;18.97;;;7.90;99.90;;;;;;5025610;28;20192;-59
2021/11/14 00:03:04;;;;;;;36.37;19.60;;;7.90;99.90;;;;;;5015334;28;20216;-59
2021/11/14 00:05:32;;;;;;;36.10;19.03;;;7.80;99.90;;;;;;5015668;28;20218;-59
2021/11/14 00:07:58;;;;;;;36.00;18.53;;;7.80;99.90;;;;;;5022540;28;20211;-60
2021/11/14 00:10:26;;;;;;;30.40;18.33;;;7.80;99.90;;;;;;5007296;28;20936;-60
2021/11/14 00:12:55;;;;;;;42.47;19.53;;;7.80;99.90;;;;;;5016456;28;20261;-59
2021/11/14 00:15:21;;;;;;;36.37;19.63;;;7.80;99.90;;;;;;5019762;28;20692;-59
2021/11/14 00:17:48;;;;;;;36.43;18.90;;;7.80;99.90;;;;;;5023555;28;20223;-59
2021/11/14 00:20:16;;;;;;;35.43;18.93;;;7.80;99.90;;;;;;5013066;28;20204;-59
2021/11/14 00:22:42;;;;;;;39.23;19.20;;;7.80;99.90;;;;;;5022200;28;20684;-59
2021/11/14 00:25:13;;;;;;;39.33;19.53;;;7.80;99.90;;;;;;5006927;28;20204;-59
2021/11/14 00:27:40;;;;;;;38.47;20.17;;;7.80;99.90;;;;;;5019336;28;20228;-59
2021/11/14 00:30:09;;;;;;;41.07;20.03;;;7.80;99.90;;;;;;5020050;28;20214;-58
2021/11/14 00:32:36;;;;;;;33.37;18.80;;;7.80;99.90;;;;;;5015892;28;20214;-59
2021/11/14 00:35:03;;;;;;;38.63;20.60;;;7.80;99.90;;;;;;5020689;28;20204;-59
2021/11/14 00:37:32;;;;;;;37.10;21.43;;;7.80;99.90;;;;;;5016369;28;20220;-59
2021/11/14 00:39:59;;;;;;;38.90;20.33;;;7.80;99.90;;;;;;5009031;28;20222;-59
2021/11/14 00:42:25;;;;;;;41.50;19.80;;;7.80;99.90;;;;;;5016277;28;20195;-59
2021/11/14 00:44:52;;;;;;;40.77;21.47;;;7.80;99.90;;;;;;5024580;28;20207;-59
2021/11/14 00:47:20;;;;;;;41.27;21.97;;;7.80;99.90;;;;;;5025244;28;20223;-59
2021/11/14 00:49:47;;;;;;;39.67;20.03;;;7.80;99.90;;;;;;5019390;28;20203;-59
2021/11/14 00:52:14;;;;;;;39.87;21.07;;;7.70;99.90;;;;;;5018141;28;20204;-59
2021/11/14 00:54:41;;;;;;;41.70;20.63;;;7.80;99.90;;;;;;5009140;28;20576;-59
2021/11/14 00:57:07;;;;;;;43.80;21.77;;;7.80;99.90;;;;;;5015816;28;20224;-58
2021/11/14 00:59:34;;;;;;;43.73;21.10;;;7.80;99.90;;;;;;5021252;28;20198;-59
2021/11/14 01:02:01;;;;;;;44.80;21.67;;;7.80;99.90;;;;;;5021926;28;20269;-59
2021/11/14 01:04:29;;;;;;;40.97;21.93;;;7.80;99.90;;;;;;5014557;28;20211;-59
2021/11/14 01:06:55;;;;;;;40.63;21.00;;;7.80;99.90;;;;;;5028638;28;20227;-57
2021/11/14 01:09:22;;;;;;;40.93;20.07;;;7.80;99.90;;;;;;5012755;28;20968;-59
2021/11/14 01:11:48;;;;;;;40.13;20.70;;;7.80;99.90;;;;;;5009531;28;20200;-59
2021/11/14 01:14:15;;;;;;;39.53;20.30;;;7.80;99.90;;;;;;5013743;28;20567;-59
2021/11/14 01:16:42;;;;;;;41.53;19.90;;;7.80;99.90;;;;;;5022775;28;20224;-59
2021/11/14 01:19:08;;;;;;;41.40;20.23;;;7.80;99.90;;;;;;5018299;28;20659;-59
2021/11/14 01:21:37;;;;;;;40.97;21.30;;;7.80;99.90;;;;;;5018477;28;20195;-59
2021/11/14 01:24:04;;;;;;;39.97;20.57;;;7.80;99.90;;;;;;5017918;28;20211;-59
2021/11/14 01:26:31;;;;;;;43.70;20.40;;;7.80;99.90;;;;;;5008921;28;20232;-59
2021/11/14 01:28:58;;;;;;;43.10;19.80;;;7.80;99.90;;;;;;5021717;28;20200;-59
2021/11/14 01:31:24;;;;;;;39.37;19.00;;;7.80;99.90;;;;;;5022647;28;20200;-59
2021/11/14 01:33:51;;;;;;;43.73;20.87;;;7.80;99.90;;;;;;5025668;28;20200;-59
2021/11/14 01:36:18;;;;;;;40.13;20.00;;;7.80;99.90;;;;;;5017114;28;20219;-59
2021/11/14 01:38:46;;;;;;;46.17;21.73;;;7.80;99.90;;;;;;5019926;28;20912;-59
2021/11/14 01:41:14;;;;;;;49.03;20.07;;;7.80;99.90;;;;;;5008438;28;20200;-59
2021/11/14 01:43:49;;;;;;;45.67;20.57;;;7.80;99.90;;;;;;5019058;28;20575;-59
2021/11/14 01:46:17;;;;;;;43.70;20.60;;;7.80;99.90;;;;;;5029760;28;20219;-59
2021/11/14 01:48:44;;;;;;;40.37;19.27;;;7.90;99.90;;;;;;5031577;28;20192;-59
2021/11/14 01:51:11;;;;;;;46.67;22.13;;;7.80;99.90;;;;;;5017996;28;20211;-59
2021/11/14 01:53:40;;;;;;;43.27;20.37;;;7.80;99.90;;;;;;5018433;28;20276;-59
2021/11/14 01:56:12;;;;;;;46.30;20.73;;;7.80;99.90;;;;;;5023912;28;20235;-60
2021/11/14 01:58:39;;;;;;;53.90;21.20;;;7.80;99.90;;;;;;5010448;28;20227;-59
2021/11/14 02:01:10;;;;;;;46.63;21.30;;;7.80;99.90;;;;;;5023027;28;20705;-58
2021/11/14 02:03:40;;;;;;;41.90;19.93;;;7.90;99.90;;;;;;5024576;28;21014;-59
2021/11/14 02:06:07;;;;;;;51.63;20.93;;;7.90;99.90;;;;;;5018902;28;20232;-59
2021/11/14 02:08:34;;;;;;;49.40;21.63;;;7.90;99.90;;;;;;5017454;28;20819;-59
2021/11/14 02:11:01;;;;;;;46.43;21.73;;;7.90;99.90;;;;;;5024763;28;20202;-59
2021/11/14 02:13:30;;;;;;;46.90;19.80;;;7.90;99.90;;;;;;5007764;28;20212;-59
2021/11/14 02:15:57;;;;;;;46.33;20.47;;;7.90;99.90;;;;;;5020879;28;20774;-59
2021/11/14 02:18:24;;;;;;;47.10;20.03;;;7.90;99.90;;;;;;5022585;28;21027;-59
2021/11/14 02:20:53;;;;;;;44.57;19.20;;;7.80;99.90;;;;;;5025758;28;20254;-59
2021/11/14 02:23:23;;;;;;;45.03;19.80;;;7.80;99.90;;;;;;5017159;28;20207;-59
2021/11/14 02:25:50;;;;;;;41.90;19.17;;;7.90;99.90;;;;;;5017902;28;20234;-59
2021/11/14 02:28:19;;;;;;;42.83;18.83;;;7.90;99.90;;;;;;5024877;28;20195;-59
2021/11/14 02:30:47;;;;;;;41.17;18.70;;;7.90;99.90;;;;;;5007550;28;20286;-59
2021/11/14 02:33:14;;;;;;;38.63;19.17;;;7.90;99.90;;;;;;5024812;28;20551;-59
2021/11/14 02:35:42;;;;;;;39.33;18.03;;;7.90;99.90;;;;;;5021783;28;20218;-58
2021/11/14 02:38:11;;;;;;;40.00;16.53;;;7.90;99.90;;;;;;5014955;28;20220;-59
2021/11/14 02:40:38;;;;;;;38.17;17.93;;;7.90;99.90;;;;;;5010260;28;20199;-59
2021/11/14 02:43:05;;;;;;;36.83;18.03;;;7.90;99.90;;;;;;5018855;28;20208;-59
2021/11/14 02:45:31;;;;;;;36.53;17.87;;;7.90;99.90;;;;;;5006160;28;20216;-59
2021/11/14 02:47:58;;;;;;;41.20;18.53;;;7.90;99.90;;;;;;5019574;28;20215;-59
2021/11/14 02:50:26;;;;;;;35.83;18.33;;;7.90;99.90;;;;;;5023507;28;20200;-60
2021/11/14 02:52:53;;;;;;;38.67;18.43;;;7.90;99.90;;;;;;5018489;28;20212;-59
2021/11/14 02:55:23;;;;;;;41.63;18.60;;;7.90;99.90;;;;;;5018789;28;20204;-59
2021/11/14 02:57:50;;;;;;;45.07;18.50;;;7.90;99.90;;;;;;5015489;28;20226;-59
2021/11/14 03:00:21;;;;;;;38.87;17.83;;;7.90;99.90;;;;;;5009522;28;20218;-59
2021/11/14 03:02:49;;;;;;;35.40;17.63;;;7.90;99.90;;;;;;5014803;28;20297;-59
2021/11/14 03:05:18;;;;;;;40.40;18.33;;;7.90;99.90;;;;;;5025394;28;20217;-59
2021/11/14 03:07:47;;;;;;;35.23;17.60;;;7.90;99.90;;;;;;5016199;28;20363;-59
2021/11/14 03:10:18;;;;;;;40.63;17.90;;;8.00;99.90;;;;;;5018370;28;20219;-59
2021/11/14 03:12:54;;;;;;;36.83;17.10;;;8.00;99.90;;;;;;5021333;28;20200;-59
2021/11/14 03:15:21;;;;;;;41.90;18.97;;;8.00;99.90;;;;;;5014448;28;20207;-59
2021/11/14 03:17:48;;;;;;;36.40;17.53;;;8.00;99.90;;;;;;5016849;28;22173;-59
2021/11/14 03:20:15;;;;;;;40.80;18.10;;;8.00;99.90;;;;;;5025348;28;20654;-59
2021/11/14 03:22:41;;;;;;;46.97;20.20;;;8.00;99.90;;;;;;5014804;28;20207;-59
2021/11/14 03:25:08;;;;;;;45.87;19.17;;;8.00;99.90;;;;;;5018072;28;20199;-59
2021/11/14 03:27:35;;;;;;;47.93;19.63;;;8.00;99.90;;;;;;5024296;28;20210;-59
2021/11/14 03:30:04;;;;;;;51.40;19.77;;;8.00;99.90;;;;;;5009566;28;20212;-59
2021/11/14 03:32:31;;;;;;;48.67;19.37;;;8.00;99.90;;;;;;5028822;28;20211;-59
2021/11/14 03:34:57;;;;;;;49.80;18.77;;;8.00;99.90;;;;;;5018851;28;20208;-59
2021/11/14 03:37:24;;;;;;;48.73;20.70;;;8.00;99.90;;;;;;5023083;28;20226;-59
2021/11/14 03:39:51;;;;;;;62.13;22.67;;;8.00;99.90;;;;;;5018662;28;20196;-59
2021/11/14 03:42:17;;;;;;;57.27;21.60;;;8.00;99.90;;;;;;5020200;28;20214;-59
2021/11/14 03:44:44;;;;;;;54.17;21.47;;;8.00;99.90;;;;;;5006935;28;20329;-59
2021/11/14 03:47:12;;;;;;;63.23;24.63;;;8.00;99.90;;;;;;5023327;28;20699;-59
2021/11/14 03:49:39;;;;;;;66.70;24.63;;;8.00;99.90;;;;;;5016381;28;20198;-59
2021/11/14 03:52:08;;;;;;;74.37;26.10;;;8.00;99.90;;;;;;5023729;28;20206;-59
2021/11/14 03:54:34;;;;;;;68.10;24.60;;;8.00;99.90;;;;;;5019300;28;20293;-59
2021/11/14 03:57:01;;;;;;;68.03;26.47;;;8.00;99.90;;;;;;5017269;28;20219;-59
2021/11/14 03:59:28;;;;;;;88.30;27.90;;;8.00;99.90;;;;;;5013885;28;20310;-59
2021/11/14 04:01:54;;;;;;;70.27;26.87;;;8.00;99.90;;;;;;5004494;28;20207;-59
2021/11/14 04:04:22;;;;;;;75.50;25.43;;;8.10;99.90;;;;;;5026768;28;20201;-59
2021/11/14 04:06:49;;;;;;;92.27;27.30;;;8.10;99.90;;;;;;5017242;28;20227;-59
2021/11/14 04:09:16;;;;;;;90.93;32.10;;;8.10;99.90;;;;;;5018298;28;20200;-60
2021/11/14 04:11:42;;;;;;;85.97;30.80;;;8.10;99.90;;;;;;5019490;28;20188;-59
2021/11/14 04:14:09;;;;;;;88.30;29.53;;;8.10;99.90;;;;;;5018367;28;20235;-59
2021/11/14 04:16:36;;;;;;;86.30;30.97;;;8.10;99.90;;;;;;5005072;28;20223;-59
2021/11/14 04:19:03;;;;;;;84.40;30.87;;;8.10;99.90;;;;;;5023902;28;20215;-59
2021/11/14 04:21:31;;;;;;;84.70;30.97;;;8.10;99.90;;;;;;5015787;28;20207;-58
2021/11/14 04:23:58;;;;;;;86.47;32.63;;;8.10;99.90;;;;;;5023578;28;20203;-59
2021/11/14 04:26:26;;;;;;;82.43;30.13;;;8.10;99.90;;;;;;5022149;28;20235;-59
2021/11/14 04:28:52;;;;;;;92.73;31.23;;;8.10;99.90;;;;;;5014962;28;20216;-59
2021/11/14 04:31:20;;;;;;;81.37;30.30;;;8.10;99.90;;;;;;5008167;28;20215;-59
2021/11/14 04:33:46;;;;;;;86.40;30.63;;;8.10;99.90;;;;;;5019764;28;20954;-59
2021/11/14 04:36:13;;;;;;;78.03;29.97;;;8.00;99.90;;;;;;5018953;28;20243;-59
2021/11/14 04:38:41;;;;;;;86.93;30.23;;;8.00;99.90;;;;;;5015685;28;20215;-59
2021/11/14 04:41:08;;;;;;;80.23;32.20;;;8.00;99.90;;;;;;5017795;28;20207;-59
2021/11/14 04:43:34;;;;;;;81.10;30.73;;;8.00;99.90;;;;;;5011856;28;20207;-59
2021/11/14 04:46:01;;;;;;;75.33;30.73;;;8.00;99.90;;;;;;5008409;28;20220;-59
2021/11/14 04:48:28;;;;;;;81.20;31.13;;;8.00;99.90;;;;;;5020223;28;20196;-58
2021/11/14 04:50:55;;;;;;;72.10;29.63;;;8.00;99.90;;;;;;5021261;28;20199;-59
2021/11/14 04:53:21;;;;;;;78.93;31.37;;;8.00;99.90;;;;;;5013626;28;20549;-59
2021/11/14 04:55:49;;;;;;;79.90;31.37;;;8.00;99.90;;;;;;5017342;28;21050;-59
2021/11/14 04:58:16;;;;;;;77.33;30.77;;;8.00;99.90;;;;;;5015820;28;20215;-59
2021/11/14 05:00:46;;;;;;;70.80;30.10;;;8.00;99.90;;;;;;5007663;28;20211;-59
2021/11/14 05:03:13;;;;;;;72.50;29.77;;;8.00;99.90;;;;;;5007174;28;20208;-59
2021/11/14 05:05:41;;;;;;;72.03;30.33;;;8.00;99.90;;;;;;5014419;28;20523;-59
2021/11/14 05:08:09;;;;;;;75.13;29.77;;;8.00;99.90;;;;;;5015221;28;20218;-59
2021/11/14 05:10:35;;;;;;;74.27;31.23;;;7.90;99.90;;;;;;5021890;28;20195;-59
2021/11/14 05:13:04;;;;;;;67.07;29.03;;;8.00;99.90;;;;;;5016313;28;20723;-59
2021/11/14 05:15:31;;;;;;;68.93;30.53;;;8.00;99.90;;;;;;5011357;28;20439;-59
2021/11/14 05:17:58;;;;;;;70.53;29.10;;;7.90;99.90;;;;;;5012023;28;20227;-59
2021/11/14 05:20:25;;;;;;;68.77;29.37;;;7.90;99.90;;;;;;5017661;28;20200;-59
2021/11/14 05:22:52;;;;;;;68.63;29.03;;;8.00;99.90;;;;;;5018016;28;20208;-59
2021/11/14 05:25:18;;;;;;;70.20;29.73;;;8.00;99.90;;;;;;5018763;28;20212;-59
2021/11/14 05:27:45;;;;;;;73.57;28.93;;;8.00;99.90;;;;;;5022678;28;20199;-59
2021/11/14 05:30:14;;;;;;;65.07;26.93;;;8.00;99.90;;;;;;5018344;28;20223;-59
2021/11/14 05:32:40;;;;;;;67.30;29.60;;;8.00;99.90;;;;;;5004727;28;20235;-59
2021/11/14 05:35:09;;;;;;;69.90;28.77;;;8.00;99.90;;;;;;5024604;28;20192;-59
2021/11/14 05:37:36;;;;;;;73.90;30.40;;;7.90;99.90;;;;;;5018000;28;20497;-59
2021/11/14 05:40:04;;;;;;;63.97;29.20;;;7.90;99.90;;;;;;5019323;28;20590;-59
2021/11/14 05:42:30;;;;;;;67.83;29.93;;;7.90;99.90;;;;;;5016541;28;20798;-59
2021/11/14 05:44:58;;;;;;;69.63;28.07;;;7.90;99.90;;;;;;5026867;28;20204;-59
2021/11/14 05:47:26;;;;;;;70.30;28.83;;;7.90;99.90;;;;;;5005000;28;20215;-59
2021/11/14 05:49:53;;;;;;;62.10;28.70;;;7.90;99.90;;;;;;5019557;28;20219;-59
2021/11/14 05:52:19;;;;;;;66.10;28.30;;;7.90;99.90;;;;;;5024203;28;20199;-59
2021/11/14 05:54:46;;;;;;;55.80;27.57;;;7.90;99.90;;;;;;5021326;28;20943;-59
2021/11/14 05:57:13;;;;;;;58.50;26.77;;;7.90;99.90;;;;;;5025601;28;20243;-59
2021/11/14 05:59:47;;;;;;;61.37;28.60;;;7.90;99.90;;;;;;5011391;28;20220;-59
2021/11/14 06:02:19;;;;;;;62.73;28.53;;;7.90;99.90;;;;;;5013752;28;20223;-59
2021/11/14 06:04:56;;;;;;;59.10;27.73;;;7.90;99.90;;;;;;5013675;28;20899;-59
2021/11/14 06:07:25;;;;;;;57.70;27.27;;;7.90;99.90;;;;;;5017590;28;20306;-59
2021/11/14 06:09:52;;;;;;;64.33;28.90;;;7.90;99.90;;;;;;5013120;28;20278;-59
2021/11/14 06:12:18;;;;;;;61.50;28.23;;;7.90;99.90;;;;;;5024780;28;20548;-59
2021/11/14 06:14:45;;;;;;;62.27;27.77;;;7.90;99.90;;;;;;5021931;28;22690;-59
2021/11/14 06:17:12;;;;;;;64.60;28.83;;;7.90;99.90;;;;;;5022779;28;20231;-59
2021/11/14 06:19:38;;;;;;;57.00;27.67;;;7.90;99.90;;;;;;5006818;28;20219;-59
2021/11/14 06:22:06;;;;;;;56.83;28.03;;;7.80;99.90;;;;;;5025054;28;20570;-59
2021/11/14 06:24:33;;;;;;;56.03;26.57;;;7.80;99.90;;;;;;5009726;28;20204;-59
2021/11/14 06:27:00;;;;;;;58.93;27.23;;;7.80;99.90;;;;;;5023147;28;20581;-59
2021/11/14 06:29:26;;;;;;;58.00;26.53;;;7.80;99.90;;;;;;5023673;28;20197;-59
2021/11/14 06:31:53;;;;;;;54.03;26.50;;;7.80;99.90;;;;;;5013983;28;20204;-59
2021/11/14 06:34:20;;;;;;;58.97;26.90;;;7.80;99.90;;;;;;5007666;28;20199;-58
2021/11/14 06:36:46;;;;;;;52.57;27.73;;;7.80;99.90;;;;;;5024205;28;20218;-58
2021/11/14 06:39:14;;;;;;;57.33;26.67;;;7.80;99.90;;;;;;5020865;28;20212;-58
2021/11/14 06:41:41;;;;;;;55.93;27.23;;;7.80;99.90;;;;;;5016091;28;20192;-58
2021/11/14 06:44:08;;;;;;;55.30;27.33;;;7.80;99.90;;;;;;5022940;28;20204;-58
2021/11/14 06:46:34;;;;;;;55.67;26.43;;;7.80;99.90;;;;;;5008876;28;20212;-58
2021/11/14 06:49:01;;;;;;;57.27;26.53;;;7.80;99.90;;;;;;5018125;28;20200;-58
2021/11/14 06:51:27;;;;;;;53.17;26.57;;;7.90;99.90;;;;;;4998882;28;20220;-59
2021/11/14 06:53:54;;;;;;;57.50;26.63;;;7.90;99.90;;;;;;5018025;28;20196;-58
2021/11/14 06:56:22;;;;;;;55.50;26.87;;;7.80;99.90;;;;;;5020646;28;20578;-58
2021/11/14 06:58:49;;;;;;;53.90;27.10;;;7.90;99.90;;;;;;5016089;28;20226;-58
2021/11/14 07:01:16;;;;;;;57.17;26.67;;;7.90;99.90;;;;;;5014156;28;20279;-58
2021/11/14 07:03:43;;;;;;;51.47;25.23;;;7.90;99.90;;;;;;5012668;28;20212;-58
2021/11/14 07:06:09;;;;;;;54.23;27.83;;;7.90;99.90;;;;;;5006020;28;20216;-58
2021/11/14 07:08:36;;;;;;;54.93;27.47;;;7.90;99.90;;;;;;5022153;28;20200;-58
2021/11/14 07:11:03;;;;;;;60.10;27.80;;;7.90;99.90;;;;;;5028406;28;20214;-58
2021/11/14 07:13:32;;;;;;;51.40;26.30;;;7.90;99.90;;;;;;5014984;28;20203;-58
2021/11/14 07:15:58;;;;;;;55.43;27.30;;;7.90;99.90;;;;;;5014166;28;20235;-58
2021/11/14 07:18:25;;;;;;;60.70;28.20;;;7.90;99.90;;;;;;5013879;28;20227;-58
2021/11/14 07:20:52;;;;;;;51.07;27.47;;;7.90;99.90;;;;;;4999464;28;20215;-58
2021/11/14 07:23:19;;;;;;;59.67;27.93;;;7.90;99.90;;;;;;5028953;28;20204;-58
2021/11/14 07:25:45;;;;;;;57.17;28.33;;;7.90;99.90;;;;;;5011106;28;20223;-58
2021/11/14 07:28:12;;;;;;;56.10;28.43;;;7.90;99.90;;;;;;5015869;28;20212;-58
2021/11/14 07:30:41;;;;;;;61.43;30.00;;;7.90;99.90;;;;;;5020830;28;20204;-58
2021/11/14 07:33:08;;;;;;;57.47;27.73;;;7.90;99.90;;;;;;5016347;28;20215;-58
2021/11/14 07:35:35;;;;;;;55.60;27.23;;;8.00;99.90;;;;;;5014200;28;20216;-59
2021/11/14 07:38:03;;;;;;;58.77;28.03;;;8.00;99.90;;;;;;5009690;28;20203;-59
2021/11/14 07:40:30;;;;;;;55.60;27.93;;;8.00;99.90;;;;;;5023642;28;20224;-58
2021/11/14 07:42:57;;;;;;;60.37;27.27;;;8.00;99.90;;;;;;5019544;28;20194;-59
2021/11/14 07:45:26;;;;;;;58.97;28.03;;;8.00;99.90;;;;;;5018205;28;20685;-58
2021/11/14 07:47:54;;;;;;;54.23;27.47;;;8.10;99.90;;;;;;5019852;28;20200;-59
2021/11/14 07:50:23;;;;;;;54.07;26.67;;;8.00;99.90;;;;;;5012102;28;20197;-59
2021/11/14 07:52:50;;;;;;;60.40;28.47;;;8.10;99.90;;;;;;5004481;28;20207;-59
2021/11/14 07:55:17;;;;;;;60.40;27.60;;;8.10;99.90;;;;;;5020920;28;20206;-59
2021/11/14 07:57:44;;;;;;;60.30;28.47;;;8.10;99.90;;;;;;5021767;28;20697;-59
2021/11/14 08:00:12;;;;;;;59.50;28.40;;;8.10;99.90;;;;;;5021132;28;20238;-59
2021/11/14 08:02:39;;;;;;;60.70;28.83;;;8.10;99.90;;;;;;5023452;28;20200;-59
2021/11/14 08:05:09;;;;;;;59.53;28.23;;;8.20;99.90;;;;;;5013665;28;20207;-59
2021/11/14 08:07:36;;;;;;;60.23;28.43;;;8.20;99.90;;;;;;4999333;28;20224;-59
2021/11/14 08:10:04;;;;;;;60.60;29.27;;;8.20;99.90;;;;;;5012346;28;20203;-59
2021/11/14 08:12:30;;;;;;;57.37;28.23;;;8.20;99.90;;;;;;5022414;28;20200;-59
2021/11/14 08:14:57;;;;;;;61.43;29.33;;;8.20;99.90;;;;;;5011491;28;20195;-59
2021/11/14 08:17:24;;;;;;;63.03;29.27;;;8.30;99.90;;;;;;5025452;28;20973;-59
2021/11/14 08:19:51;;;;;;;64.33;29.27;;;8.30;99.90;;;;;;5011502;28;20730;-59
2021/11/14 08:22:20;;;;;;;65.60;28.80;;;8.30;99.90;;;;;;4996308;28;20212;-59
2021/11/14 08:24:47;;;;;;;68.67;29.07;;;8.40;99.90;;;;;;5017665;28;20560;-59
2021/11/14 08:27:13;;;;;;;67.13;28.27;;;8.40;99.90;;;;;;5011756;28;20602;-58
2021/11/14 08:29:40;;;;;;;69.40;29.17;;;8.40;99.90;;;;;;5016903;28;20203;-59
2021/11/14 08:32:08;;;;;;;58.73;27.73;;;8.40;99.90;;;;;;5019629;28;20215;-59
2021/11/14 08:34:35;;;;;;;65.90;28.57;;;8.40;99.90;;;;;;5017834;28;20212;-59
2021/11/14 08:37:01;;;;;;;66.60;28.97;;;8.50;99.90;;;;;;5012505;28;20219;-59
2021/11/14 08:39:29;;;;;;;63.97;27.60;;;8.60;99.90;;;;;;5004746;28;20220;-59
2021/11/14 08:41:56;;;;;;;63.07;27.53;;;8.60;99.90;;;;;;5018642;28;20200;-59
2021/11/14 08:44:25;;;;;;;62.13;29.00;;;8.60;99.90;;;;;;5030506;28;20200;-58
2021/11/14 08:46:52;;;;;;;60.03;28.03;;;8.60;99.90;;;;;;5019263;28;20724;-59
2021/11/14 08:49:19;;;;;;;59.83;28.50;;;8.60;99.90;;;;;;5012125;28;20214;-58
2021/11/14 08:51:45;;;;;;;61.60;28.00;;;8.60;99.90;;;;;;5024135;28;20206;-59
2021/11/14 08:54:12;;;;;;;57.03;26.57;;;8.60;99.90;;;;;;5002911;28;20204;-58
2021/11/14 08:56:40;;;;;;;55.17;25.37;;;8.50;99.90;;;;;;5026855;28;20291;-59
2021/11/14 08:59:08;;;;;;;69.13;27.93;;;8.60;99.90;;;;;;5017661;28;20204;-60
2021/11/14 09:01:35;;;;;;;66.00;28.37;;;8.60;99.90;;;;;;5021704;28;20200;-58
2021/11/14 09:04:03;;;;;;;65.50;32.50;;;8.60;99.90;;;;;;5022174;28;21001;-59
2021/11/14 09:06:30;;;;;;;58.60;27.80;;;8.80;99.90;;;;;;5007541;28;20227;-58
2021/11/14 09:08:57;;;;;;;59.93;27.23;;;8.70;99.90;;;;;;5012876;28;21282;-58
2021/11/14 09:11:24;;;;;;;57.57;27.30;;;8.70;99.90;;;;;;5011991;28;20207;-59
2021/11/14 09:13:53;;;;;;;54.67;25.27;;;8.60;99.90;;;;;;5025354;28;20894;-59
2021/11/14 09:16:20;;;;;;;52.10;26.80;;;8.60;99.90;;;;;;5030673;28;20228;-61
2021/11/14 09:18:46;;;;;;;59.33;25.50;;;8.70;99.90;;;;;;5019888;28;20228;-60
2021/11/14 09:21:13;;;;;;;59.30;26.73;;;8.70;99.90;;;;;;5022610;28;20220;-59
2021/11/14 09:23:40;;;;;;;53.77;25.27;;;8.70;99.90;;;;;;5020870;28;20212;-60
2021/11/14 09:26:08;;;;;;;58.03;26.03;;;8.70;99.90;;;;;;5008123;28;20227;-59
2021/11/14 09:28:35;;;;;;;54.80;25.67;;;8.70;99.90;;;;;;5013417;28;20204;-59
2021/11/14 09:31:03;;;;;;;57.97;27.47;;;8.70;99.90;;;;;;5023090;28;20184;-60
2021/11/14 09:33:30;;;;;;;55.90;26.73;;;8.80;99.90;;;;;;5019961;28;20208;-59
2021/11/14 09:35:57;;;;;;;58.87;27.13;;;8.80;99.90;;;;;;5016783;28;20334;-60
2021/11/14 09:38:23;;;;;;;50.40;25.50;;;8.80;99.90;;;;;;5019207;28;20676;-60
2021/11/14 09:40:50;;;;;;;61.27;27.57;;;8.80;99.90;;;;;;5000942;28;20219;-59
2021/11/14 09:43:19;;;;;;;54.67;26.97;;;8.80;99.90;;;;;;5024805;28;20604;-60
2021/11/14 09:45:46;;;;;;;56.73;28.37;;;8.80;99.90;;;;;;5016531;28;20243;-59
2021/11/14 09:48:14;;;;;;;58.27;28.07;;;8.90;99.90;;;;;;5024562;28;20215;-60
2021/11/14 09:50:41;;;;;;;55.50;27.33;;;8.80;99.90;;;;;;5014155;28;20200;-59
2021/11/14 09:53:08;;;;;;;59.57;28.37;;;8.90;99.90;;;;;;5012958;28;20195;-59
2021/11/14 09:55:35;;;;;;;63.80;29.47;;;8.90;99.90;;;;;;5007526;28;20220;-57
2021/11/14 09:58:03;;;;;;;55.07;26.77;;;8.90;99.90;;;;;;5015209;28;20199;-59
2021/11/14 10:00:30;;;;;;;58.30;28.43;;;8.90;99.90;;;;;;5024329;28;20219;-59
2021/11/14 10:02:56;;;;;;;60.73;27.03;;;8.90;99.90;;;;;;5021632;28;20200;-60
2021/11/14 10:05:24;;;;;;;56.00;27.93;;;9.00;99.90;;;;;;5020135;28;20211;-59
2021/11/14 10:07:56;;;;;;;61.97;28.33;;;9.00;99.90;;;;;;5012337;28;20199;-60
2021/11/14 10:10:26;;;;;;;59.27;27.63;;;9.00;99.90;;;;;;5023003;28;20208;-60
2021/11/14 10:12:53;;;;;;;53.43;26.40;;;9.00;99.90;;;;;;4994169;28;20208;-60
2021/11/14 10:15:21;;;;;;;53.40;26.63;;;9.00;99.90;;;;;;5019682;28;20188;-61
2021/11/14 10:17:50;;;;;;;55.77;27.37;;;9.00;99.90;;;;;;5019996;28;20204;-59
2021/11/14 10:20:21;;;;;;;51.13;24.73;;;9.10;99.90;;;;;;5010911;28;20220;-59
2021/11/14 10:22:51;;;;;;;50.30;25.73;;;9.10;99.90;;;;;;5020052;28;20660;-58
2021/11/14 10:25:18;;;;;;;49.57;24.23;;;9.10;99.90;;;;;;5015494;28;20203;-59
2021/11/14 10:27:50;;;;;;;48.10;23.83;;;9.10;99.90;;;;;;5004614;28;20680;-58
2021/11/14 10:30:17;;;;;;;49.87;23.93;;;9.10;99.90;;;;;;5018692;28;20479;-59
2021/11/14 10:32:44;;;;;;;45.20;23.27;;;9.00;99.90;;;;;;5019483;28;20223;-58
2021/11/14 10:35:11;;;;;;;46.37;23.90;;;9.10;99.90;;;;;;5016407;28;20727;-59
2021/11/14 10:37:43;;;;;;;46.27;23.50;;;9.10;99.90;;;;;;5018770;28;20227;-58
2021/11/14 10:40:17;;;;;;;48.73;24.90;;;9.10;99.90;;;;;;5016488;28;20227;-58
2021/11/14 10:42:46;;;;;;;47.87;23.07;;;9.10;99.90;;;;;;5007875;28;20688;-59
2021/11/14 10:45:13;;;;;;;45.67;22.93;;;9.10;99.90;;;;;;5018207;28;20334;-59
2021/11/14 10:47:40;;;;;;;46.37;24.20;;;9.10;99.90;;;;;;5018654;28;20207;-59
2021/11/14 10:50:10;;;;;;;45.33;23.80;;;9.10;99.90;;;;;;5017488;28;20542;-59
2021/11/14 10:52:38;;;;;;;52.37;24.43;;;9.10;99.90;;;;;;5018466;28;20200;-58
2021/11/14 10:55:09;;;;;;;47.30;24.20;;;9.10;99.90;;;;;;5018111;28;20230;-60
2021/11/14 10:57:39;;;;;;;51.23;24.50;;;9.10;99.90;;;;;;5020113;28;20247;-58
2021/11/14 11:00:08;;;;;;;48.57;24.67;;;9.10;99.90;;;;;;5007235;28;20692;-59
2021/11/14 11:02:39;;;;;;;47.00;23.17;;;9.10;99.90;;;;;;5022914;28;20208;-59
2021/11/14 11:05:11;;;;;;;44.63;23.80;;;9.20;99.90;;;;;;5017122;28;20204;-59
2021/11/14 11:07:41;;;;;;;51.80;24.27;;;9.20;99.90;;;;;;5017376;28;20232;-59
2021/11/14 11:10:08;;;;;;;45.23;24.50;;;9.20;99.90;;;;;;5015930;28;20203;-59
2021/11/14 11:12:36;;;;;;;46.03;24.23;;;9.20;99.90;;;;;;5016664;28;20204;-59
2021/11/14 11:15:06;;;;;;;49.63;24.50;;;9.30;99.90;;;;;;5007282;28;20295;-59
2021/11/14 11:17:44;;;;;;;47.20;22.93;;;9.30;99.90;;;;;;5017166;28;20216;-59
2021/11/14 11:20:14;;;;;;;45.57;22.83;;;9.30;99.90;;;;;;5015081;28;20261;-59
2021/11/14 11:22:50;;;;;;;46.13;22.10;;;9.30;99.90;;;;;;5013529;28;20211;-59
2021/11/14 11:25:27;;;;;;;48.17;23.17;;;9.40;99.90;;;;;;5017976;28;20207;-59
2021/11/14 11:27:55;;;;;;;52.30;24.50;;;9.40;99.90;;;;;;5018703;28;20206;-60
2021/11/14 11:30:27;;;;;;;47.80;23.03;;;9.40;99.90;;;;;;5005371;28;20322;-60
2021/11/14 11:32:55;;;;;;;49.03;22.43;;;9.40;99.90;;;;;;5018174;28;20664;-60
2021/11/14 11:35:22;;;;;;;48.60;23.93;;;9.40;99.90;;;;;;5016159;28;20204;-59
2021/11/14 11:37:49;;;;;;;43.47;23.03;;;9.40;99.90;;;;;;5018336;28;20203;-59
2021/11/14 11:40:16;;;;;;;44.87;21.00;;;9.40;99.90;;;;;;5018852;28;20204;-60
2021/11/14 11:42:43;;;;;;;42.53;21.20;;;9.50;99.90;;;;;;5018645;28;20695;-59
2021/11/14 11:45:15;;;;;;;44.13;21.53;;;9.40;99.90;;;;;;5005742;28;20219;-60
2021/11/14 11:47:45;;;;;;;44.10;21.03;;;9.50;99.90;;;;;;5018644;28;20222;-59
2021/11/14 11:50:13;;;;;;;48.60;22.17;;;9.40;99.90;;;;;;5016290;28;20200;-59
2021/11/14 11:52:41;;;;;;;48.97;21.87;;;9.50;99.90;;;;;;5021439;28;20207;-60
2021/11/14 11:55:20;;;;;;;41.20;22.07;;;9.50;99.90;;;;;;5018134;28;20196;-60
2021/11/14 11:57:47;;;;;;;48.33;22.77;;;9.50;99.90;;;;;;5026656;28;20199;-59
2021/11/14 12:00:17;;;;;;;49.00;22.70;;;9.50;99.90;;;;;;5001490;28;21339;-60
2021/11/14 12:02:44;;;;;;;42.87;21.53;;;9.50;99.90;;;;;;5024216;28;20192;-59
2021/11/14 12:05:13;;;;;;;40.27;21.20;;;9.50;99.90;;;;;;5014689;28;20234;-60
2021/11/14 12:07:45;;;;;;;43.77;20.90;;;9.50;99.90;;;;;;5021175;28;20215;-60
2021/11/14 12:10:15;;;;;;;45.30;22.87;;;9.50;99.90;;;;;;5016135;28;20287;-60
2021/11/14 12:12:52;;;;;;;46.83;22.53;;;9.40;99.90;;;;;;5022123;28;20203;-60
2021/11/14 12:15:23;;;;;;;45.20;20.53;;;9.40;99.90;;;;;;5015423;28;20200;-59
2021/11/14 12:17:53;;;;;;;44.57;20.93;;;9.40;99.90;;;;;;4999031;28;20220;-59
2021/11/14 12:20:32;;;;;;;51.07;23.20;;;9.50;99.90;;;;;;5014239;28;20219;-59
2021/11/14 12:23:02;;;;;;;46.23;22.60;;;9.50;99.90;;;;;;5012929;28;20858;-58
2021/11/14 12:25:33;;;;;;;48.10;21.93;;;9.50;99.90;;;;;;5016945;28;20311;-58
2021/11/14 12:28:04;;;;;;;47.10;22.73;;;9.40;99.90;;;;;;5016322;28;20188;-58
2021/11/14 12:30:34;;;;;;;44.73;22.27;;;9.40;99.90;;;;;;5002936;28;20200;-59
2021/11/14 12:33:01;;;;;;;47.37;22.10;;;9.40;99.90;;;;;;5004525;28;20310;-59
2021/11/14 12:35:32;;;;;;;48.43;22.37;;;9.40;99.90;;;;;;5012492;28;20203;-58
2021/11/14 12:38:02;;;;;;;46.37;21.70;;;9.40;99.90;;;;;;5012746;28;20283;-58